createdAt,value
2023-07-07T00:01:31.888Z,71.72
2023-07-07T00:03:58.704Z,70.37
2023-07-07T00:06:25.430Z,69.49
2023-07-07T00:08:52.307Z,69.15
2023-07-07T00:11:19.064Z,69.91
2023-07-07T00:13:45.800Z,69.44
2023-07-07T00:16:12.601Z,69.61
2023-07-07T00:18:39.414Z,69.67
2023-07-07T00:21:06.677Z,69.54
2023-07-07T00:23:40.070Z,69.38
2023-07-07T00:26:09.431Z,69.54
2023-07-07T00:28:36.770Z,69.81
2023-07-07T00:31:04.442Z,71.84
2023-07-07T00:33:31.570Z,72.87
2023-07-07T00:35:58.280Z,74.14
2023-07-07T00:38:25.370Z,75.44
2023-07-07T00:40:53.733Z,76.29
2023-07-07T00:43:21.971Z,76.32
2023-07-07T00:45:48.711Z,77.10
2023-07-07T00:48:27.790Z,77.89
2023-07-07T00:51:24.320Z,77.25
2023-07-07T00:53:53.899Z,77.62
2023-07-07T00:56:27.320Z,77.84
2023-07-07T00:58:59.477Z,77.67
2023-07-07T01:01:26.691Z,77.45
2023-07-07T01:03:57.720Z,77.70
2023-07-07T01:06:28.937Z,77.42
2023-07-07T01:09:01.431Z,77.67
2023-07-07T01:11:29.267Z,78.05
2023-07-07T01:13:58.367Z,78.53
2023-07-07T01:16:42.890Z,79.98
2023-07-07T01:19:17.354Z,81.08
2023-07-07T01:22:13.394Z,82.45
2023-07-07T01:24:48.042Z,82.82
2023-07-07T01:27:58.687Z,83.13
2023-07-07T01:30:37.752Z,83.11
2023-07-07T01:33:09.353Z,83.50
2023-07-07T01:35:36.359Z,83.54
2023-07-07T01:38:04.553Z,83.88
2023-07-07T01:40:34.199Z,83.80
2023-07-07T01:43:07.718Z,83.53
2023-07-07T01:45:47.420Z,83.20
2023-07-07T01:48:25.281Z,83.61
2023-07-07T01:50:52.949Z,82.94
2023-07-07T01:53:28.918Z,82.34
2023-07-07T01:56:00.186Z,82.28
2023-07-07T01:58:29.324Z,82.48
2023-07-07T02:00:58.607Z,82.42
2023-07-07T02:03:27.748Z,82.59
2023-07-07T02:05:54.467Z,82.12
2023-07-07T02:08:21.231Z,82.40
2023-07-07T02:10:48.058Z,82.63
2023-07-07T02:13:14.768Z,81.93
2023-07-07T02:15:41.592Z,82.42
2023-07-07T02:18:08.464Z,82.13
2023-07-07T02:20:35.304Z,81.86
2023-07-07T02:23:02.141Z,82.41
2023-07-07T02:25:30.537Z,82.53
2023-07-07T02:27:57.221Z,82.83
2023-07-07T02:30:26.478Z,83.68
2023-07-07T02:32:53.370Z,84.13
2023-07-07T02:35:20.128Z,84.68
2023-07-07T02:37:46.889Z,84.89
2023-07-07T02:40:13.723Z,85.24
2023-07-07T02:42:42.873Z,85.09
2023-07-07T02:45:09.988Z,85.01
2023-07-07T02:47:36.834Z,86.06
2023-07-07T02:50:04.201Z,85.63
2023-07-07T02:52:31.291Z,85.19
2023-07-07T02:54:58.026Z,85.68
2023-07-07T02:57:24.822Z,85.85
2023-07-07T02:59:51.538Z,86.86
2023-07-07T03:02:18.439Z,87.43
2023-07-07T03:04:50.618Z,87.21
2023-07-07T03:07:17.363Z,87.61
2023-07-07T03:09:44.424Z,87.98
2023-07-07T03:12:11.915Z,88.23
2023-07-07T03:14:38.621Z,88.00
2023-07-07T03:17:07.355Z,87.55
2023-07-07T03:19:42.694Z,87.35
2023-07-07T03:22:16.083Z,87.66
2023-07-07T03:24:53.827Z,87.69
2023-07-07T03:27:38.266Z,87.86
2023-07-07T03:30:09.938Z,87.80
2023-07-07T03:32:51.614Z,87.35
2023-07-07T03:35:19.830Z,88.46
2023-07-07T03:37:46.630Z,89.02
2023-07-07T03:40:14.397Z,90.01
2023-07-07T03:42:41.328Z,89.90
2023-07-07T03:45:11.416Z,90.04
2023-07-07T03:47:39.016Z,90.19
2023-07-07T03:50:09.249Z,90.29
2023-07-07T03:52:36.422Z,90.29
2023-07-07T03:55:04.050Z,90.96
2023-07-07T03:57:30.802Z,91.03
2023-07-07T03:59:57.498Z,90.88
2023-07-07T04:02:24.243Z,90.84
2023-07-07T04:04:51.181Z,91.46
2023-07-07T04:07:18.023Z,91.22
2023-07-07T04:09:44.735Z,91.30
2023-07-07T04:12:11.582Z,91.66
2023-07-07T04:14:38.293Z,92.38
2023-07-07T04:17:05.382Z,93.02
2023-07-07T04:19:32.067Z,93.56
2023-07-07T04:21:58.972Z,93.68
2023-07-07T04:24:25.667Z,93.04
2023-07-07T04:26:52.419Z,92.64
2023-07-07T04:29:19.225Z,92.15
2023-07-07T04:31:47.159Z,92.24
2023-07-07T04:34:15.777Z,92.08
2023-07-07T04:36:45.748Z,92.03
2023-07-07T04:39:13.035Z,92.17
2023-07-07T04:41:39.990Z,92.40
2023-07-07T04:44:06.737Z,92.99
2023-07-07T04:46:39.482Z,92.79
2023-07-07T04:49:08.816Z,92.74
2023-07-07T04:51:41.768Z,93.18
2023-07-07T04:54:12.688Z,93.19
2023-07-07T04:56:39.865Z,92.75
2023-07-07T04:59:08.121Z,92.77
2023-07-07T05:01:35.110Z,92.18
2023-07-07T05:04:03.576Z,91.38
2023-07-07T05:06:34.054Z,91.09
2023-07-07T05:09:02.494Z,88.45
2023-07-07T05:11:31.445Z,85.72
2023-07-07T05:13:58.979Z,84.40
2023-07-07T05:16:28.627Z,83.75
2023-07-07T05:18:55.394Z,82.78
2023-07-07T05:21:24.300Z,80.50
2023-07-07T05:23:53.412Z,78.19
2023-07-07T05:26:22.006Z,75.82
2023-07-07T05:28:49.636Z,74.70
2023-07-07T05:31:16.360Z,73.37
2023-07-07T05:33:43.115Z,72.19
2023-07-07T05:36:10.460Z,72.01
2023-07-07T05:38:40.006Z,71.86
2023-07-07T05:41:07.274Z,71.37
2023-07-07T05:43:37.355Z,70.54
2023-07-07T05:46:06.688Z,70.70
2023-07-07T05:48:33.519Z,70.87
2023-07-07T05:51:05.001Z,71.55
2023-07-07T05:53:31.976Z,71.85
2023-07-07T05:56:10.717Z,70.62
2023-07-07T05:58:37.931Z,71.20
2023-07-07T06:01:05.124Z,71.29
2023-07-07T06:03:33.422Z,72.00
2023-07-07T06:06:00.318Z,71.45
2023-07-07T06:08:27.021Z,70.97
2023-07-07T06:10:54.130Z,70.79
2023-07-07T06:13:25.596Z,70.77
2023-07-07T06:15:53.365Z,71.02
2023-07-07T06:18:20.797Z,71.40
2023-07-07T06:20:51.647Z,71.18
2023-07-07T06:23:18.407Z,70.74
2023-07-07T06:25:45.292Z,71.02
2023-07-07T06:28:11.993Z,71.30
2023-07-07T06:30:38.742Z,71.38
2023-07-07T06:33:05.529Z,70.61
2023-07-07T06:35:33.474Z,70.71
2023-07-07T06:38:00.272Z,71.01
2023-07-07T06:40:27.110Z,69.26
2023-07-07T06:42:56.373Z,68.68
2023-07-07T06:45:24.447Z,68.66
2023-07-07T06:47:51.182Z,69.22
2023-07-07T06:50:23.277Z,69.35
2023-07-07T06:52:50.060Z,68.77
2023-07-07T06:55:16.784Z,68.21
2023-07-07T06:57:43.519Z,68.29
2023-07-07T07:00:10.917Z,68.11
2023-07-07T07:02:37.696Z,67.95
2023-07-07T07:05:04.721Z,68.30
2023-07-07T07:07:33.224Z,68.66
2023-07-07T07:10:03.704Z,67.52
2023-07-07T07:12:31.698Z,67.00
2023-07-07T07:14:58.578Z,66.74
2023-07-07T07:17:26.279Z,67.09
2023-07-07T07:19:53.829Z,65.94
2023-07-07T07:22:21.238Z,65.96
2023-07-07T07:24:47.954Z,65.83
2023-07-07T07:27:14.939Z,65.94
2023-07-07T07:29:44.666Z,65.60
2023-07-07T07:32:11.920Z,64.82
2023-07-07T07:34:39.209Z,63.53
2023-07-07T07:37:06.921Z,63.42
2023-07-07T07:39:34.369Z,63.65
2023-07-07T07:42:01.258Z,63.09
2023-07-07T07:44:27.994Z,62.59
2023-07-07T07:46:57.202Z,61.65
2023-07-07T07:49:25.516Z,60.46
2023-07-07T07:51:52.279Z,60.53
2023-07-07T07:54:20.977Z,59.39
2023-07-07T07:56:47.842Z,59.44
2023-07-07T07:59:15.102Z,59.41
2023-07-07T08:01:42.357Z,58.00
2023-07-07T08:04:09.515Z,58.14
2023-07-07T08:06:36.310Z,56.78
2023-07-07T08:09:04.710Z,56.36
2023-07-07T08:11:43.711Z,54.57
2023-07-07T08:14:11.608Z,55.39
2023-07-07T08:16:38.494Z,55.00
2023-07-07T08:21:32.029Z,53.50
2023-07-07T08:23:58.851Z,53.80
2023-07-07T08:26:26.704Z,53.37
2023-07-07T08:28:53.930Z,53.33
2023-07-07T08:31:20.661Z,51.40
2023-07-07T08:33:57.691Z,50.30
2023-07-07T08:36:27.719Z,49.34
2023-07-07T08:38:54.497Z,48.40
2023-07-07T08:41:21.329Z,49.07
2023-07-07T08:43:49.107Z,49.28
2023-07-07T08:46:27.066Z,47.48
2023-07-07T08:49:06.125Z,47.50
2023-07-07T08:51:40.517Z,48.03
2023-07-07T08:54:46.691Z,46.64
2023-07-07T08:57:15.935Z,46.28
2023-07-07T09:00:00.924Z,45.00
2023-07-07T09:02:30.611Z,44.83
2023-07-07T09:05:09.662Z,44.55
2023-07-07T09:07:47.496Z,44.43
2023-07-07T09:10:39.418Z,43.04
2023-07-07T09:13:22.005Z,43.41
2023-07-07T09:16:22.047Z,42.52
2023-07-07T09:19:05.719Z,43.14
2023-07-07T09:21:53.868Z,42.06
2023-07-07T09:24:28.118Z,42.38
2023-07-07T09:27:01.011Z,40.44
2023-07-07T09:29:32.153Z,41.19
2023-07-07T09:32:04.225Z,39.28
2023-07-07T09:34:34.190Z,40.20
2023-07-07T09:37:37.896Z,41.18
2023-07-07T09:40:21.205Z,39.30
2023-07-07T09:42:58.340Z,40.94
2023-07-07T09:46:00.152Z,40.59
2023-07-07T09:48:34.678Z,39.92
2023-07-07T09:51:12.355Z,40.75
2023-07-07T09:53:47.288Z,39.36
2023-07-07T09:56:30.699Z,35.18
2023-07-07T09:59:07.299Z,37.17
2023-07-07T10:01:43.252Z,37.20
2023-07-07T10:04:16.493Z,35.94
2023-07-07T10:06:53.412Z,36.07
2023-07-07T10:09:20.148Z,37.59
2023-07-07T10:12:14.457Z,37.68
2023-07-07T10:14:35.786Z,35.91
2023-07-07T10:17:20.507Z,34.04
2023-07-07T10:20:00.350Z,34.02
2023-07-07T10:22:27.087Z,33.77
2023-07-07T10:24:53.810Z,34.91
2023-07-07T10:27:24.837Z,34.76
2023-07-07T10:29:51.554Z,34.86
2023-07-07T10:32:22.388Z,34.60
2023-07-07T10:34:53.210Z,33.96
2023-07-07T10:37:22.661Z,34.90
2023-07-07T10:39:58.054Z,34.37
2023-07-07T10:42:26.305Z,33.06
2023-07-07T10:44:55.268Z,33.72
2023-07-07T10:47:32.285Z,33.88
2023-07-07T10:50:00.701Z,33.48
2023-07-07T10:55:32.909Z,32.28
2023-07-07T10:58:02.652Z,31.52
2023-07-07T11:00:56.874Z,31.15
2023-07-07T11:03:58.508Z,31.23
2023-07-07T11:06:31.975Z,31.43
2023-07-07T11:09:05.688Z,30.74
2023-07-07T11:11:52.558Z,31.72
2023-07-07T11:14:36.280Z,32.69
2023-07-07T11:17:13.300Z,32.06
2023-07-07T11:19:58.321Z,30.80
2023-07-07T11:22:46.837Z,30.07
2023-07-07T11:25:38.586Z,30.69
2023-07-07T11:28:34.631Z,30.36
2023-07-07T11:31:37.447Z,29.74
2023-07-07T11:34:24.862Z,29.00
2023-07-07T11:37:09.091Z,30.75
2023-07-07T11:39:47.896Z,30.36
2023-07-07T11:42:33.613Z,29.99
2023-07-07T11:45:32.378Z,29.95
2023-07-07T11:48:25.634Z,29.56
2023-07-07T11:50:58.675Z,30.10
2023-07-07T11:53:40.753Z,30.10
2023-07-07T11:56:45.553Z,29.23
2023-07-07T11:59:49.537Z,29.59
2023-07-07T12:02:40.216Z,28.93
2023-07-07T12:05:14.285Z,27.69
2023-07-07T12:07:48.716Z,28.02
2023-07-07T12:10:20.411Z,28.64
2023-07-07T12:12:55.481Z,29.40
2023-07-07T12:15:28.927Z,30.34
2023-07-07T12:18:17.302Z,30.13
2023-07-07T12:20:47.970Z,29.57
2023-07-07T12:23:21.077Z,29.21
2023-07-07T12:25:47.930Z,28.23
2023-07-07T12:28:15.157Z,28.19
2023-07-07T12:30:48.045Z,28.45
2023-07-07T12:33:16.530Z,29.43
2023-07-07T12:36:00.677Z,28.87
2023-07-07T12:38:33.471Z,29.03
2023-07-07T12:41:25.689Z,29.53
2023-07-07T12:43:57.911Z,27.83
2023-07-07T12:46:30.416Z,26.82
2023-07-07T12:49:00.332Z,28.13
2023-07-07T12:51:34.006Z,27.74
2023-07-07T12:54:00.742Z,26.92
2023-07-07T12:56:32.770Z,27.35
2023-07-07T12:59:01.249Z,27.17
2023-07-07T13:01:39.532Z,27.72
2023-07-07T13:04:06.497Z,26.91
2023-07-07T13:06:33.403Z,26.45
2023-07-07T13:09:15.432Z,27.60
2023-07-07T13:11:46.248Z,26.73
2023-07-07T13:14:40.291Z,27.71
2023-07-07T13:17:23.780Z,27.65
2023-07-07T13:20:01.781Z,26.33
2023-07-07T13:23:10.391Z,26.93
2023-07-07T13:25:38.541Z,25.43
2023-07-07T13:28:12.089Z,26.63
2023-07-07T13:30:42.812Z,26.50
2023-07-07T13:33:13.609Z,26.37
2023-07-07T13:35:46.429Z,26.66
2023-07-07T13:38:19.264Z,25.92
2023-07-07T13:40:47.999Z,25.91
2023-07-07T13:43:30.707Z,25.88
2023-07-07T13:46:03.315Z,26.40
2023-07-07T13:48:33.886Z,26.19
2023-07-07T13:51:12.421Z,25.82
2023-07-07T13:53:39.712Z,26.12
2023-07-07T13:56:07.199Z,25.60
2023-07-07T13:58:34.342Z,25.87
2023-07-07T14:01:04.038Z,25.72
2023-07-07T14:03:33.884Z,26.47
2023-07-07T14:06:16.173Z,26.39
2023-07-07T14:08:43.283Z,25.92
2023-07-07T14:11:21.785Z,26.59
2023-07-07T14:14:00.600Z,25.32
2023-07-07T14:16:35.856Z,26.53
2023-07-07T14:19:09.726Z,26.17
2023-07-07T14:21:36.714Z,25.91
2023-07-07T14:24:03.901Z,26.72
2023-07-07T14:26:31.437Z,26.50
2023-07-07T14:28:59.157Z,26.08
2023-07-07T14:31:26.920Z,26.89
2023-07-07T14:34:04.187Z,27.01
2023-07-07T14:36:38.165Z,26.46
2023-07-07T14:39:23.734Z,26.21
2023-07-07T14:41:52.827Z,26.68
2023-07-07T14:44:56.268Z,26.67
2023-07-07T14:47:34.733Z,26.70
2023-07-07T14:50:10.435Z,26.38
2023-07-07T14:52:44.921Z,26.02
2023-07-07T14:55:22.299Z,26.46
2023-07-07T14:57:54.438Z,26.54
2023-07-07T15:00:31.807Z,26.77
2023-07-07T15:02:58.979Z,26.59
2023-07-07T15:05:30.121Z,26.61
2023-07-07T15:08:07.184Z,26.54
2023-07-07T15:10:34.755Z,26.21
2023-07-07T15:13:01.947Z,26.15
2023-07-07T15:15:28.863Z,25.94
2023-07-07T15:17:55.698Z,25.86
2023-07-07T15:20:22.618Z,25.94
2023-07-07T15:22:49.345Z,25.94
2023-07-07T15:25:16.160Z,26.39
2023-07-07T15:27:43.105Z,27.61
2023-07-07T15:30:18.734Z,27.81
2023-07-07T15:32:46.351Z,28.02
2023-07-07T15:35:19.004Z,27.76
2023-07-07T15:37:49.261Z,27.87
2023-07-07T15:40:22.225Z,28.17
2023-07-07T15:42:52.543Z,27.61
2023-07-07T15:45:19.512Z,27.51
2023-07-07T15:47:47.565Z,27.65
2023-07-07T15:50:21.209Z,28.09
2023-07-07T15:52:48.151Z,27.90
2023-07-07T15:55:15.036Z,27.39
2023-07-07T15:57:41.781Z,27.72
2023-07-07T16:00:29.718Z,27.68
2023-07-07T16:02:56.473Z,28.28
2023-07-07T16:05:24.023Z,28.48
2023-07-07T16:07:51.022Z,28.36
2023-07-07T16:10:17.872Z,27.89
2023-07-07T16:12:44.576Z,28.33
2023-07-07T16:15:11.423Z,28.24
2023-07-07T16:17:38.193Z,28.70
2023-07-07T16:20:22.812Z,28.83
2023-07-07T16:22:59.042Z,28.70
2023-07-07T16:25:27.765Z,28.92
2023-07-07T16:27:55.739Z,28.80
2023-07-07T16:30:34.819Z,28.38
2023-07-07T16:33:01.566Z,28.82
2023-07-07T16:35:28.967Z,28.89
2023-07-07T16:37:55.701Z,29.16
2023-07-07T16:40:36.665Z,28.70
2023-07-07T16:43:04.569Z,28.66
2023-07-07T16:45:31.734Z,28.69
2023-07-07T16:47:58.520Z,28.47
2023-07-07T16:50:25.233Z,28.82
2023-07-07T16:52:54.657Z,29.14
2023-07-07T16:55:21.374Z,29.61
2023-07-07T16:57:48.168Z,28.82
2023-07-07T17:00:26.877Z,28.84
2023-07-07T17:02:54.352Z,29.38
2023-07-07T17:05:23.298Z,29.53
2023-07-07T17:07:50.271Z,29.65
2023-07-07T17:10:19.181Z,29.65
2023-07-07T17:12:45.933Z,29.40
2023-07-07T17:15:14.263Z,30.44
2023-07-07T17:17:41.421Z,30.15
2023-07-07T17:20:23.230Z,30.23
2023-07-07T17:22:50.906Z,30.50
2023-07-07T17:25:19.730Z,30.10
2023-07-07T17:27:48.241Z,30.32
2023-07-07T17:30:21.505Z,30.51
2023-07-07T17:32:49.054Z,30.33
2023-07-07T17:35:17.680Z,30.52
2023-07-07T17:37:47.365Z,30.29
2023-07-07T17:40:35.792Z,30.82
2023-07-07T17:43:02.687Z,31.00
2023-07-07T17:45:29.368Z,31.25
2023-07-07T17:47:56.130Z,31.85
2023-07-07T17:50:26.590Z,32.20
2023-07-07T17:52:53.456Z,32.63
2023-07-07T17:55:22.113Z,32.56
2023-07-07T17:57:49.603Z,32.24
2023-07-07T18:00:18.122Z,32.45
2023-07-07T18:02:45.156Z,32.84
2023-07-07T18:05:12.010Z,32.92
2023-07-07T18:07:38.774Z,33.08
2023-07-07T18:10:19.533Z,33.21
2023-07-07T18:12:50.971Z,33.17
2023-07-07T18:15:18.322Z,33.12
2023-07-07T18:17:59.417Z,33.02
2023-07-07T18:21:44.380Z,33.26
2023-07-07T18:23:31.152Z,33.77
2023-07-07T18:25:58.221Z,33.63
2023-07-07T18:28:25.196Z,34.05
2023-07-07T18:30:56.832Z,34.03
2023-07-07T18:33:24.277Z,34.03
2023-07-07T18:35:51.373Z,34.17
2023-07-07T18:38:21.635Z,34.44
2023-07-07T18:40:48.335Z,34.60
2023-07-07T18:43:15.112Z,34.65
2023-07-07T18:45:41.952Z,34.61
2023-07-07T18:48:14.335Z,34.72
2023-07-07T18:50:41.169Z,35.10
2023-07-07T18:53:08.764Z,34.91
2023-07-07T18:55:35.509Z,35.25
2023-07-07T18:58:02.241Z,35.46
2023-07-07T19:00:43.180Z,35.51
2023-07-07T19:03:12.534Z,35.62
2023-07-07T19:05:40.053Z,35.31
2023-07-07T19:08:12.419Z,35.55
2023-07-07T19:10:41.547Z,35.45
2023-07-07T19:13:16.946Z,35.93
2023-07-07T19:15:46.914Z,35.41
2023-07-07T19:18:40.654Z,36.06
2023-07-07T19:21:25.380Z,35.71
2023-07-07T19:23:53.070Z,35.96
2023-07-07T19:26:33.812Z,36.15
2023-07-07T19:29:05.889Z,36.06
2023-07-07T19:31:34.213Z,36.20
2023-07-07T19:34:01.352Z,36.17
2023-07-07T19:36:30.777Z,36.12
2023-07-07T19:38:57.891Z,36.16
2023-07-07T19:41:27.355Z,36.30
2023-07-07T19:43:54.276Z,36.12
2023-07-07T19:46:33.339Z,36.45
2023-07-07T19:49:02.149Z,36.51
2023-07-07T19:51:33.632Z,36.79
2023-07-07T19:54:01.906Z,36.78
2023-07-07T19:56:29.678Z,36.83
2023-07-07T19:58:58.827Z,36.75
2023-07-07T20:01:32.262Z,37.07
2023-07-07T20:03:59.105Z,36.53
2023-07-07T20:06:29.630Z,36.43
2023-07-07T20:08:56.531Z,36.71
2023-07-07T20:11:32.970Z,36.65
2023-07-07T20:13:59.953Z,36.36
2023-07-07T20:16:50.977Z,36.53
2023-07-07T20:19:22.408Z,36.45
2023-07-07T20:21:50.732Z,36.29
2023-07-07T20:24:21.618Z,36.49
2023-07-07T20:26:49.915Z,36.34
2023-07-07T20:29:18.271Z,36.43
2023-07-07T20:31:45.731Z,36.46
2023-07-07T20:34:13.258Z,36.50
2023-07-07T20:36:42.212Z,36.42
2023-07-07T20:39:14.216Z,36.47
2023-07-07T20:41:41.336Z,36.63
2023-07-07T20:44:08.114Z,36.24
2023-07-07T20:46:41.129Z,36.55
2023-07-07T20:49:19.821Z,36.31
2023-07-07T20:51:47.677Z,36.56
2023-07-07T20:54:15.125Z,36.62
2023-07-07T20:56:42.452Z,37.01
2023-07-07T20:59:27.976Z,36.82
2023-07-07T21:01:56.762Z,37.17
2023-07-07T21:04:24.079Z,37.28
2023-07-07T21:06:50.951Z,37.17
2023-07-07T21:09:18.127Z,37.25
2023-07-07T21:11:44.870Z,37.56
2023-07-07T21:14:11.713Z,37.72
2023-07-07T21:16:49.139Z,37.46
2023-07-07T21:19:15.939Z,37.40
2023-07-07T21:21:43.088Z,37.79
2023-07-07T21:24:09.793Z,38.06
2023-07-07T21:26:37.141Z,38.29
2023-07-07T21:29:09.701Z,38.14
2023-07-07T21:31:37.675Z,38.43
2023-07-07T21:34:29.374Z,38.16
2023-07-07T21:36:56.138Z,38.30
2023-07-07T21:39:28.193Z,38.56
2023-07-07T21:42:10.979Z,38.59
2023-07-07T21:44:41.226Z,38.31
2023-07-07T21:47:12.577Z,38.83
2023-07-07T21:49:39.327Z,38.72
2023-07-07T21:52:14.240Z,38.62
2023-07-07T21:54:41.178Z,38.74
2023-07-07T21:57:27.575Z,38.91
2023-07-07T21:59:54.380Z,38.85
2023-07-07T22:02:21.094Z,39.18
2023-07-07T22:04:47.950Z,39.16
2023-07-07T22:07:15.466Z,39.39
2023-07-07T22:09:42.267Z,39.27
2023-07-07T22:12:10.784Z,39.01
2023-07-07T22:14:37.505Z,39.26
2023-07-07T22:17:04.703Z,39.26
2023-07-07T22:19:31.576Z,39.52
2023-07-07T22:21:58.354Z,39.66
2023-07-07T22:24:25.368Z,39.99
2023-07-07T22:26:52.241Z,40.02
2023-07-07T22:29:18.997Z,40.53
2023-07-07T22:31:45.770Z,40.69
2023-07-07T22:34:12.553Z,40.91
2023-07-07T22:36:41.382Z,41.05
2023-07-07T22:39:12.852Z,41.16
2023-07-07T22:41:39.677Z,41.25
2023-07-07T22:44:06.373Z,41.04
2023-07-07T22:46:41.050Z,41.34
2023-07-07T22:49:12.671Z,41.40
2023-07-07T22:51:41.815Z,41.09
2023-07-07T22:54:08.515Z,41.29
2023-07-07T22:56:37.454Z,41.57
2023-07-07T22:59:18.610Z,41.64
2023-07-07T23:01:45.339Z,41.64
2023-07-07T23:04:12.198Z,41.77
2023-07-07T23:06:39.868Z,41.92
2023-07-07T23:09:45.649Z,42.06
2023-07-07T23:12:17.640Z,42.03
2023-07-07T23:14:46.212Z,41.83
2023-07-07T23:17:23.133Z,41.81
2023-07-07T23:19:57.068Z,41.98
2023-07-07T23:22:32.924Z,42.35
2023-07-07T23:25:01.138Z,42.47
2023-07-07T23:27:36.321Z,42.30
2023-07-07T23:30:08.771Z,42.41
2023-07-07T23:32:35.510Z,42.64
2023-07-07T23:35:02.743Z,42.87
2023-07-07T23:37:30.947Z,43.23
2023-07-07T23:39:58.549Z,42.93
2023-07-07T23:42:27.097Z,43.39
2023-07-07T23:44:54.613Z,43.25
2023-07-07T23:47:22.548Z,43.12
2023-07-07T23:49:49.345Z,43.36
2023-07-07T23:52:20.071Z,43.30
2023-07-07T23:54:47.012Z,43.40
2023-07-07T23:57:20.887Z,43.28
2023-07-07T23:59:47.711Z,43.25
